HomeShort term forecast

Short term forecast

Graphical weather forecast for the next 48 hours for Montreal:

Short term forecast

This weather forecast is automatically refreshed every 3 hours.

Hourly Experimental Forecast for the next 48 hours ®

Overall summary: Clear throughout the day.

 Date & Hour   Temp   Feel   Baro   Hum   Speed & Bearing   Wind Gust   Precip.%   Precip.   Visibility   Cloud cover   Conditions 
 22/09/2020 - 21:00  13.1°C  13.1°C  1014.1 hPa  76%  10.0 km/h   21.0 km/h  0%  --  16.1km  3%  Clear 
 22/09/2020 - 22:00  12.8°C  12.8°C  1013.5 hPa  78%  11.1 km/h   22.9 km/h  0%  --  16.1km  1%  Clear 
 22/09/2020 - 23:00  12.4°C  12.4°C  1012.9 hPa  78%  11.3 km/h   22.0 km/h  2%  0.01 mm/h  16.1km  0%  Clear 
 23/09/2020 - 00:00  11.6°C  11.6°C  1012.0 hPa  80%  11.1 km/h   22.3 km/h  3%  0.02 mm/h  16.1km  0%  Clear 
 23/09/2020 - 01:00  10.9°C  10.9°C  1011.1 hPa  83%  10.8 km/h   23.7 km/h  0%  --  16.1km  1%  Clear 
 23/09/2020 - 02:00  10.5°C  10.5°C  1009.9 hPa  85%  10.7 km/h   24.4 km/h  0%  --  16.1km  8%  Clear 
 23/09/2020 - 03:00  10.3°C  10.3°C  1009.2 hPa  87%  10.7 km/h   23.0 km/h  0%  --  16.1km  24%  Clear 
 23/09/2020 - 04:00  10.2°C  10.2°C  1009.4 hPa  86%  11.2 km/h   22.3 km/h  3%  0.01 mm/h  16.1km  31%  Clear 
 23/09/2020 - 05:00  10.2°C  10.2°C  1008.7 hPa  85%  11.4 km/h   20.6 km/h  0%  --  16.1km  30%  Clear 
 23/09/2020 - 06:00  10.3°C  10.3°C  1009.1 hPa  86%  11.8 km/h   19.5 km/h  0%  --  16.1km  30%  Clear 
 23/09/2020 - 07:00  10.6°C  10.6°C  1009.4 hPa  88%  12.2 km/h   19.3 km/h  0%  --  16.1km  41%  Partly Cloudy 
 23/09/2020 - 08:00  11.4°C  11.4°C  1009.4 hPa  89%  11.9 km/h   21.2 km/h  7%  0.04 mm/h  16.1km  49%  Partly Cloudy 
 23/09/2020 - 09:00  13.1°C  13.1°C  1009.5 hPa  86%  12.5 km/h   21.2 km/h  0%  --  16.1km  45%  Partly Cloudy 
 23/09/2020 - 10:00  15.4°C  15.4°C  1009.2 hPa  80%  14.7 km/h   22.0 km/h  0%  --  16.1km  32%  Partly Cloudy 
 23/09/2020 - 11:00  17.7°C  17.7°C  1008.8 hPa  75%  15.8 km/h   22.6 km/h  0%  --  16.1km  33%  Partly Cloudy 
 23/09/2020 - 12:00  19.3°C  19.3°C  1008.5 hPa  71%  17.6 km/h   23.9 km/h  0%  --  16.1km  32%  Partly Cloudy 
 23/09/2020 - 13:00  20.8°C  20.8°C  1008.5 hPa  66%  19.7 km/h   25.6 km/h  2%  0.01 mm/h  16.1km  32%  Partly Cloudy 
 23/09/2020 - 14:00  21.8°C  21.8°C  1008.1 hPa  62%  21.2 km/h   27.2 km/h  2%  0.02 mm/h  16.1km  31%  Clear 
 23/09/2020 - 15:00  22.3°C  22.3°C  1008.0 hPa  60%  21.9 km/h   28.9 km/h  2%  0.02 mm/h  16.1km  28%  Clear 
 23/09/2020 - 16:00  22.0°C  22.0°C  1008.0 hPa  59%  22.0 km/h   30.7 km/h  2%  0.02 mm/h  16.1km  23%  Clear 
 23/09/2020 - 17:00  21.4°C  21.4°C  1008.2 hPa  59%  21.4 km/h   32.0 km/h  2%  0.02 mm/h  16.1km  19%  Clear 
 23/09/2020 - 18:00  20.2°C  20.2°C  1008.9 hPa  63%  19.3 km/h   32.8 km/h  2%  0.01 mm/h  16.1km  18%  Clear 
 23/09/2020 - 19:00  18.7°C  18.7°C  1009.6 hPa  68%  16.3 km/h   32.9 km/h  0%  --  16.1km  17%  Clear 
 23/09/2020 - 20:00  17.4°C  17.4°C  1010.3 hPa  74%  13.6 km/h   31.5 km/h  0%  --  16.1km  15%  Clear 
 23/09/2020 - 21:00  16.5°C  16.5°C  1010.8 hPa  75%  12.1 km/h   27.6 km/h  0%  --  16.1km  10%  Clear 
 23/09/2020 - 22:00  15.7°C  15.7°C  1011.3 hPa  77%  11.1 km/h   22.2 km/h  0%  --  16.1km  4%  Clear 
 23/09/2020 - 23:00  15.0°C  15.0°C  1011.4 hPa  78%  10.3 km/h   18.0 km/h  2%  0.01 mm/h  16.1km  0%  Clear 
 24/09/2020 - 00:00  14.2°C  14.2°C  1011.5 hPa  80%  9.4 km/h   15.2 km/h  2%  0.01 mm/h  16.1km  0%  Clear 
 24/09/2020 - 01:00  13.4°C  13.4°C  1011.6 hPa  82%  8.9 km/h   13.5 km/h  2%  0.01 mm/h  16.1km  0%  Clear 
 24/09/2020 - 02:00  12.8°C  12.8°C  1011.8 hPa  85%  8.7 km/h   13.3 km/h  0%  --  16.1km  0%  Clear 
 24/09/2020 - 03:00  12.2°C  12.2°C  1011.9 hPa  88%  9.2 km/h   15.5 km/h  0%  --  16.1km  0%  Clear 
 24/09/2020 - 04:00  11.5°C  11.5°C  1011.9 hPa  91%  10.1 km/h   19.1 km/h  0%  --  16.1km  1%  Clear 
 24/09/2020 - 05:00  11.1°C  11.1°C  1011.9 hPa  93%  10.8 km/h   21.5 km/h  0%  --  16.1km  4%  Clear 
 24/09/2020 - 06:00  11.2°C  11.2°C  1012.3 hPa  94%  11.1 km/h   21.5 km/h  0%  --  16.1km  12%  Clear 
 24/09/2020 - 07:00  11.6°C  11.6°C  1012.9 hPa  95%  11.2 km/h   20.3 km/h  0%  --  16.1km  22%  Clear 
 24/09/2020 - 08:00  12.5°C  12.5°C  1013.5 hPa  95%  11.2 km/h   18.7 km/h  3%  0.01 mm/h  16.1km  33%  Partly Cloudy 
 24/09/2020 - 09:00  13.7°C  13.7°C  1013.7 hPa  90%  11.0 km/h   16.8 km/h  5%  0.02 mm/h  16.1km  44%  Partly Cloudy 
 24/09/2020 - 10:00  15.3°C  15.3°C  1013.7 hPa  85%  10.7 km/h   14.7 km/h  7%  0.05 mm/h  16.1km  55%  Partly Cloudy 
 24/09/2020 - 11:00  16.7°C  16.7°C  1013.9 hPa  80%  10.5 km/h   13.2 km/h  8%  0.08 mm/h  16.1km  62%  Mostly Cloudy 
 24/09/2020 - 12:00  17.8°C  17.8°C  1013.8 hPa  75%  11.0 km/h   12.9 km/h  7%  0.09 mm/h  16.1km  64%  Mostly Cloudy 
 24/09/2020 - 13:00  18.6°C  18.6°C  1013.6 hPa  71%  11.6 km/h   13.2 km/h  6%  0.08 mm/h  16.1km  64%  Mostly Cloudy 
 24/09/2020 - 14:00  19.7°C  19.7°C  1013.5 hPa  66%  12.1 km/h   13.4 km/h  4%  0.06 mm/h  16.1km  61%  Mostly Cloudy 
 24/09/2020 - 15:00  20.7°C  20.7°C  1013.6 hPa  61%  12.3 km/h   13.9 km/h  2%  0.03 mm/h  16.1km  50%  Partly Cloudy 
 24/09/2020 - 16:00  21.3°C  21.3°C  1013.9 hPa  57%  12.2 km/h   14.3 km/h  2%  0.01 mm/h  16.1km  36%  Partly Cloudy 
 24/09/2020 - 17:00  21.1°C  21.1°C  1014.2 hPa  56%  11.6 km/h   13.5 km/h  2%  0.01 mm/h  16.1km  27%  Clear 
 24/09/2020 - 18:00  19.9°C  19.9°C  1014.6 hPa  60%  9.5 km/h   10.1 km/h  0%  --  16.1km  26%  Clear 
 24/09/2020 - 19:00  18.0°C  18.0°C  1015.3 hPa  66%  6.9 km/h   6.9 km/h  0%  --  16.1km  31%  Clear 
 24/09/2020 - 20:00  16.6°C  16.6°C  1015.8 hPa  70%  5.0 km/h   5.0 km/h  0%  --  16.1km  36%  Partly Cloudy 

 

Past weather and reports

Past weatherFind in this section the past weather conditions, weather archive, graphics, reports and statistics.

Current conditions

Current weather condition for MontrealAll you need to know about the current weather conditions for Montreal. Weather data is updated every 10 minutes.

Weather forecast

Current Montreal weatherSince 2004, celinium.com website has provided accurate weather forecast for Montreal's island.